Bloomington, Minnesota
Current Conditions -  °F | °C
As of 2:53 AM on Friday 24 Oct 2014 (Local Time) from KMSP Reporting Station
Scattered Clouds Scattered Clouds  
Wind Chill: 43°   Ceiling: Unl
Heat Index: 47°   Visibility: 10mi
Dew Point: 45°   Wind: 8mph
Humidity: 93%   Direction: 110°ESE
Pressure: 29.95"   Gusts: NA
Location:  44.82°N, 93.31°W
Report Text: KMSP 240753Z 11007KT 10SM SCT240 08/07 A2995 RMK AO2 SLP143 T00830072
Loading
Personal Weather Stations






























Interactive Weather Map
Tropical Storm Tracking
New forecast layout! Learn more

10-Day Weather Forecast

Advertisements
Track Severe Weather on mobile